WetterOnline ( http://www.wetteronline.de )

Wetter aktuell Linz

Aktuelles Wetter: Linz Flughafen (313m)

6-stündlich | Neueste Meldungen
Ortszeit Temperatur Wetter
Mi, 12.12. 13:00 2.6° C bewölkt
Mi, 12.12. 7:00 1.1° C leichter Schneeregen
Mi, 12.12. 1:00 1.7° C leichter Regen
Di, 11.12. 19:00 2.7° C bedeckt
Di, 11.12. 13:00 2.7° C bedeckt
Di, 11.12. 7:00 1.2° C leichter Schneeregen
Di, 11.12. 1:00 1.3° C wolkig
Mo, 10.12. 19:00 2.0° C leicht bewölkt
Ortszeit Temperatur Wetter
Mi, 12.12. 16:50 1° C leichter Schneeregen
Mi, 12.12. 16:20 2° C leichte Schneeschauer
Mi, 12.12. 16:00 2.4° C bewölkt
Mi, 12.12. 15:50 2° C bewölkt
Mi, 12.12. 15:20 3° C bewölkt
Mi, 12.12. 15:00 2.5° C bewölkt
Mi, 12.12. 14:50 3° C bewölkt
Mi, 12.12. 14:20 3° C bewölkt
Mi, 12.12. 14:00 2.9° C leichter Regen
Mi, 12.12. 13:20 3° C bedeckt
Ortszeit Relative Feuchte Sichtweite
Mi, 12.12. 13:00 83% 25 km
Mi, 12.12. 7:00 92% 11 km
Mi, 12.12. 1:00 88% 17 km
Di, 11.12. 19:00 76% 45 km
Di, 11.12. 13:00 82% 40 km
Di, 11.12. 7:00 91% 10 km
Di, 11.12. 1:00 88% 40 km
Mo, 10.12. 19:00 85% 50 km
Ortszeit Relative Feuchte Sichtweite
Mi, 12.12. 16:50 93% >10 km
Mi, 12.12. 16:20 80% >10 km
Mi, 12.12. 16:00 79% 40 km
Mi, 12.12. 15:50 80% >10 km
Mi, 12.12. 15:20 75% >10 km
Mi, 12.12. 15:00 81% 30 km
Mi, 12.12. 14:50 81% >10 km
Mi, 12.12. 14:20 75% >10 km
Mi, 12.12. 14:00 82% 24 km
Mi, 12.12. 13:20 81% >10 km
Ortszeit Niederschlagsmenge Niederschlagsart
Mi, 12.12. 13:00 0.1 l/m2 in 6 Std. -
Mi, 12.12. 7:00 2 l/m2 in 12 Std. -
Mi, 12.12. 1:00 0.6 l/m2 in 6 Std. -
Di, 11.12. 19:00 1 l/m2 in 12 Std. -
Di, 11.12. 13:00 1 l/m2 in 6 Std. -
Di, 11.12. 7:00 4 l/m2 in 12 Std. -
Di, 11.12. 1:00 3 l/m2 in 6 Std. -
Mo, 10.12. 19:00 1 l/m2 in 12 Std. -
Ortszeit Niederschlagsmenge Niederschlagsart
Mi, 12.12. 16:50 keine Meldung -
Mi, 12.12. 16:20 keine Meldung -
Mi, 12.12. 16:00 0.0 l/m2 in 1 Std. -
Mi, 12.12. 15:50 keine Meldung -
Mi, 12.12. 15:20 keine Meldung -
Mi, 12.12. 15:00 0.1 l/m2 in 1 Std. -
Mi, 12.12. 14:50 keine Meldung -
Mi, 12.12. 14:20 keine Meldung -
Mi, 12.12. 14:00 0.1 l/m2 in 1 Std. -
Mi, 12.12. 13:20 keine Meldung -
Ortszeit Stärke Spitze Richtung
km/h Bft. km/h Grad Sektor
Mi, 12.12. 13:00 22 4 - 260° W
Mi, 12.12. 7:00 25 4 47 260° W
Mi, 12.12. 1:00 29 5 50 250° W
Di, 11.12. 19:00 29 5 54 260° W
Di, 11.12. 13:00 36 5 54 260° W
Di, 11.12. 7:00 36 5 50 260° W
Di, 11.12. 1:00 22 4 54 270° W
Mo, 10.12. 19:00 25 4 61 280° W
Ortszeit Stärke Spitze Richtung
km/h Bft. km/h Grad Sektor
Mi, 12.12. 16:50 9 2 - 290° W
Mi, 12.12. 16:20 15 3 - 300° NW
Mi, 12.12. 16:00 14 3 - 280° W
Mi, 12.12. 15:50 15 3 - 280° W
Mi, 12.12. 15:20 15 3 - 260° W
Mi, 12.12. 15:00 22 4 - 270° W
Mi, 12.12. 14:50 20 4 - 270° W
Mi, 12.12. 14:20 20 4 - 260° W
Mi, 12.12. 14:00 18 3 - 260° W
Mi, 12.12. 13:20 19 3 - 250° W
Ortszeit Untergrenze Bedeckung Gattung
total tief tief mittel hoch
Mi, 12.12. 13:00 390 m 8/8 5/8 - - -
Mi, 12.12. 7:00 210 m 8/8 5/8 - - -
Mi, 12.12. 1:00 390 m 8/8 5/8 - - -
Di, 11.12. 19:00 450 m 8/8 7/8 Cu - -
Di, 11.12. 13:00 360 m 8/8 7/8 Cu - -
Di, 11.12. 7:00 210 m 8/8 6/8 - - -
Di, 11.12. 1:00 360 m 7/8 5/8 - - -
Mo, 10.12. 19:00 540 m 4/8 3/8 - - -
Ortszeit Bedeckungsgrad in Achtel und Wolkenuntergrenze
Mi, 12.12. 16:50 1-2(300m) 5-7(600m)
Mi, 12.12. 16:20 1-2(120m) 5-7(720m)
Mi, 12.12. 16:00 1(120m) 5(690m) 6(1200m)
Mi, 12.12. 15:50 1-2(120m) 5-7(690m) 5-7(1200m)
Mi, 12.12. 15:20 1-2(180m) 5-7(990m) 5-7(1500m)
Mi, 12.12. 15:00 1(180m) 5(990m) 7(1500m)
Mi, 12.12. 14:50 1-2(180m) 5-7(990m) 5-7(1500m)
Mi, 12.12. 14:20 1-2(390m) 5-7(1500m)
Mi, 12.12. 14:00 1(390m) 3(450m) 5(1500m)
Mi, 12.12. 13:20 1-2(390m) 8(1500m)
Ortszeit Luftdruck NN (hPa) Tendenz (hPa in 3 Std.)
Mi, 12.12. 13:00 1022 - 0,3
Mi, 12.12. 7:00 1021 + 0,2
Mi, 12.12. 1:00 1021 + 0,1
Di, 11.12. 19:00 1021 + 0,5
Di, 11.12. 13:00 1020 + 0,1
Di, 11.12. 7:00 1019 - 0,1
Di, 11.12. 1:00 1019 + 1,0
Mo, 10.12. 19:00 1020 + 0,7
Ortszeit Luftdruck NN (hPa) Tendenz (hPa in 3 Std.)
Mi, 12.12. 16:50 1020 keine Meldung
Mi, 12.12. 16:20 1020 keine Meldung
Mi, 12.12. 16:00 1022 - 0,3
Mi, 12.12. 15:50 1020 keine Meldung
Mi, 12.12. 15:20 1020 keine Meldung
Mi, 12.12. 15:00 1022 - 0,3
Mi, 12.12. 14:50 1020 keine Meldung
Mi, 12.12. 14:20 1020 keine Meldung
Mi, 12.12. 14:00 1022 - 0,3
Mi, 12.12. 13:20 1021 keine Meldung
Ortszeit Schneehöhe (cm)
Mi, 12.12. 13:00 -
Mi, 12.12. 7:00 -
Mi, 12.12. 1:00 -
Di, 11.12. 19:00 -
Di, 11.12. 13:00 -
Di, 11.12. 7:00 -
Di, 11.12. 1:00 -
Mo, 10.12. 19:00 -
Ortszeit Schneehöhe (cm)
Mi, 12.12. 16:50 -
Mi, 12.12. 16:20 -
Mi, 12.12. 16:00 -
Mi, 12.12. 15:50 -
Mi, 12.12. 15:20 -
Mi, 12.12. 15:00 -
Mi, 12.12. 14:50 -
Mi, 12.12. 14:20 -
Mi, 12.12. 14:00 -
Mi, 12.12. 13:20 -
Link zu dieser Seite / Seite empfehlen

Das Wetter in ...